sensor_id;sensor_type;location;lat;lon;timestamp;temperature;humidity
3756;DHT22;1893;52.526;13.360;2023-07-08T00:00:46;19.50;94.50
3756;DHT22;1893;52.526;13.360;2023-07-08T00:03:16;19.40;95.00
3756;DHT22;1893;52.526;13.360;2023-07-08T00:05:41;19.40;95.80
3756;DHT22;1893;52.526;13.360;2023-07-08T00:08:14;19.30;96.50
3756;DHT22;1893;52.526;13.360;2023-07-08T00:10:40;19.20;97.10
3756;DHT22;1893;52.526;13.360;2023-07-08T00:13:08;19.10;97.80
3756;DHT22;1893;52.526;13.360;2023-07-08T00:15:34;19.10;98.60
3756;DHT22;1893;52.526;13.360;2023-07-08T00:18:13;19.00;99.70
3756;DHT22;1893;52.526;13.360;2023-07-08T00:20:46;19.00;99.90
3756;DHT22;1893;52.526;13.360;2023-07-08T00:23:12;18.80;99.90
3756;DHT22;1893;52.526;13.360;2023-07-08T00:25:38;18.80;99.90
3756;DHT22;1893;52.526;13.360;2023-07-08T00:28:18;18.70;99.90
3756;DHT22;1893;52.526;13.360;2023-07-08T00:30:48;18.80;99.90
3756;DHT22;1893;52.526;13.360;2023-07-08T00:33:13;18.80;99.90
3756;DHT22;1893;52.526;13.360;2023-07-08T00:35:41;18.70;99.90
3756;DHT22;1893;52.526;13.360;2023-07-08T00:38:24;18.80;99.90
3756;DHT22;1893;52.526;13.360;2023-07-08T00:43:42;18.80;99.90
3756;DHT22;1893;52.526;13.360;2023-07-08T00:48:45;18.90;99.90
3756;DHT22;1893;52.526;13.360;2023-07-08T00:51:11;18.80;99.90
3756;DHT22;1893;52.526;13.360;2023-07-08T00:53:38;18.90;99.90
3756;DHT22;1893;52.526;13.360;2023-07-08T00:56:09;18.90;99.90
3756;DHT22;1893;52.526;13.360;2023-07-08T00:58:48;18.90;99.90
3756;DHT22;1893;52.526;13.360;2023-07-08T01:01:15;19.00;99.90
3756;DHT22;1893;52.526;13.360;2023-07-08T01:04:06;19.20;99.90
3756;DHT22;1893;52.526;13.360;2023-07-08T01:06:32;19.20;99.90
3756;DHT22;1893;52.526;13.360;2023-07-08T01:09:03;19.30;99.90
3756;DHT22;1893;52.526;13.360;2023-07-08T01:11:32;19.20;99.90
3756;DHT22;1893;52.526;13.360;2023-07-08T01:14:00;19.20;99.90
3756;DHT22;1893;52.526;13.360;2023-07-08T01:16:27;19.20;99.90
3756;DHT22;1893;52.526;13.360;2023-07-08T01:18:52;19.10;99.90
3756;DHT22;1893;52.526;13.360;2023-07-08T01:21:45;19.10;99.90
3756;DHT22;1893;52.526;13.360;2023-07-08T01:24:11;19.00;99.90
3756;DHT22;1893;52.526;13.360;2023-07-08T01:26:40;18.90;99.90
3756;DHT22;1893;52.526;13.360;2023-07-08T01:29:06;18.90;99.90
3756;DHT22;1893;52.526;13.360;2023-07-08T01:31:35;18.70;99.90
3756;DHT22;1893;52.526;13.360;2023-07-08T01:34:01;18.70;99.90
3756;DHT22;1893;52.526;13.360;2023-07-08T01:36:31;18.70;99.90
3756;DHT22;1893;52.526;13.360;2023-07-08T01:38:57;18.70;99.90
3756;DHT22;1893;52.526;13.360;2023-07-08T01:41:23;18.60;99.90
3756;DHT22;1893;52.526;13.360;2023-07-08T01:43:48;18.50;99.90
3756;DHT22;1893;52.526;13.360;2023-07-08T01:46:18;18.60;99.90
3756;DHT22;1893;52.526;13.360;2023-07-08T01:48:53;18.50;99.90
3756;DHT22;1893;52.526;13.360;2023-07-08T01:51:20;18.60;99.90
3756;DHT22;1893;52.526;13.360;2023-07-08T01:53:46;18.50;99.90
3756;DHT22;1893;52.526;13.360;2023-07-08T01:56:12;18.50;99.90
3756;DHT22;1893;52.526;13.360;2023-07-08T01:58:38;18.40;99.90
3756;DHT22;1893;52.526;13.360;2023-07-08T02:01:05;18.50;99.90
3756;DHT22;1893;52.526;13.360;2023-07-08T02:03:31;18.40;99.90
3756;DHT22;1893;52.526;13.360;2023-07-08T02:05:57;18.40;99.90
3756;DHT22;1893;52.526;13.360;2023-07-08T02:08:23;18.40;99.90
3756;DHT22;1893;52.526;13.360;2023-07-08T02:10:54;18.40;99.90
3756;DHT22;1893;52.526;13.360;2023-07-08T02:13:21;18.30;99.90
3756;DHT22;1893;52.526;13.360;2023-07-08T02:15:47;18.30;99.90
3756;DHT22;1893;52.526;13.360;2023-07-08T02:18:13;18.30;99.90
3756;DHT22;1893;52.526;13.360;2023-07-08T02:20:39;18.30;99.90
3756;DHT22;1893;52.526;13.360;2023-07-08T02:23:04;18.30;99.90
3756;DHT22;1893;52.526;13.360;2023-07-08T02:25:30;18.20;99.90
3756;DHT22;1893;52.526;13.360;2023-07-08T02:27:56;18.20;99.90
3756;DHT22;1893;52.526;13.360;2023-07-08T02:30:27;18.10;99.90
3756;DHT22;1893;52.526;13.360;2023-07-08T02:32:53;18.00;99.90
3756;DHT22;1893;52.526;13.360;2023-07-08T02:35:29;17.80;99.90
3756;DHT22;1893;52.526;13.360;2023-07-08T02:37:56;17.80;99.90
3756;DHT22;1893;52.526;13.360;2023-07-08T02:40:23;17.70;99.90
3756;DHT22;1893;52.526;13.360;2023-07-08T02:42:49;17.70;99.90
3756;DHT22;1893;52.526;13.360;2023-07-08T02:45:16;17.70;99.90
3756;DHT22;1893;52.526;13.360;2023-07-08T02:47:42;17.70;99.90
3756;DHT22;1893;52.526;13.360;2023-07-08T02:50:08;17.70;99.90
3756;DHT22;1893;52.526;13.360;2023-07-08T02:52:35;17.60;99.90
3756;DHT22;1893;52.526;13.360;2023-07-08T02:55:00;17.70;99.90
3756;DHT22;1893;52.526;13.360;2023-07-08T02:57:26;17.60;99.90
3756;DHT22;1893;52.526;13.360;2023-07-08T02:59:52;17.60;99.90
3756;DHT22;1893;52.526;13.360;2023-07-08T03:05:39;17.50;99.90
3756;DHT22;1893;52.526;13.360;2023-07-08T03:08:04;17.50;99.90
3756;DHT22;1893;52.526;13.360;2023-07-08T03:10:30;17.50;99.90
3756;DHT22;1893;52.526;13.360;2023-07-08T03:12:56;17.50;99.90
3756;DHT22;1893;52.526;13.360;2023-07-08T03:15:22;17.40;99.90
3756;DHT22;1893;52.526;13.360;2023-07-08T03:17:48;17.40;99.90
3756;DHT22;1893;52.526;13.360;2023-07-08T03:20:13;17.50;99.90
3756;DHT22;1893;52.526;13.360;2023-07-08T03:22:39;17.40;99.90
3756;DHT22;1893;52.526;13.360;2023-07-08T03:25:05;17.30;99.90
3756;DHT22;1893;52.526;13.360;2023-07-08T03:27:31;17.30;99.90
3756;DHT22;1893;52.526;13.360;2023-07-08T03:29:56;17.30;99.90
3756;DHT22;1893;52.526;13.360;2023-07-08T03:32:22;17.30;99.90
3756;DHT22;1893;52.526;13.360;2023-07-08T03:34:47;17.30;99.90
3756;DHT22;1893;52.526;13.360;2023-07-08T03:37:13;17.20;99.90
3756;DHT22;1893;52.526;13.360;2023-07-08T03:39:39;17.10;99.90
3756;DHT22;1893;52.526;13.360;2023-07-08T03:42:05;17.20;99.90
3756;DHT22;1893;52.526;13.360;2023-07-08T03:44:30;17.20;99.90
3756;DHT22;1893;52.526;13.360;2023-07-08T03:46:56;17.20;99.90
3756;DHT22;1893;52.526;13.360;2023-07-08T03:49:23;17.20;99.90
3756;DHT22;1893;52.526;13.360;2023-07-08T03:51:51;17.20;99.90
3756;DHT22;1893;52.526;13.360;2023-07-08T03:54:19;17.30;99.90
3756;DHT22;1893;52.526;13.360;2023-07-08T03:56:45;17.30;99.90
3756;DHT22;1893;52.526;13.360;2023-07-08T03:59:10;17.40;99.90
3756;DHT22;1893;52.526;13.360;2023-07-08T04:01:36;17.40;99.90
3756;DHT22;1893;52.526;13.360;2023-07-08T04:04:08;17.50;99.90
3756;DHT22;1893;52.526;13.360;2023-07-08T04:06:34;17.50;99.90
3756;DHT22;1893;52.526;13.360;2023-07-08T04:09:00;17.60;99.90
3756;DHT22;1893;52.526;13.360;2023-07-08T04:11:26;17.50;99.90
3756;DHT22;1893;52.526;13.360;2023-07-08T04:13:52;17.60;99.90
3756;DHT22;1893;52.526;13.360;2023-07-08T04:16:27;17.70;99.90
3756;DHT22;1893;52.526;13.360;2023-07-08T04:18:54;17.70;99.90
3756;DHT22;1893;52.526;13.360;2023-07-08T04:21:20;17.70;99.90
3756;DHT22;1893;52.526;13.360;2023-07-08T04:23:46;17.80;99.90
3756;DHT22;1893;52.526;13.360;2023-07-08T04:26:11;17.80;99.90
3756;DHT22;1893;52.526;13.360;2023-07-08T04:28:37;17.90;99.90
3756;DHT22;1893;52.526;13.360;2023-07-08T04:31:03;18.00;99.90
3756;DHT22;1893;52.526;13.360;2023-07-08T04:33:29;18.00;99.90
3756;DHT22;1893;52.526;13.360;2023-07-08T04:35:55;18.00;99.90
3756;DHT22;1893;52.526;13.360;2023-07-08T04:38:23;18.10;99.90
3756;DHT22;1893;52.526;13.360;2023-07-08T04:40:50;18.20;99.90
3756;DHT22;1893;52.526;13.360;2023-07-08T04:43:17;18.20;99.90
3756;DHT22;1893;52.526;13.360;2023-07-08T04:45:45;18.40;99.90
3756;DHT22;1893;52.526;13.360;2023-07-08T04:48:15;18.50;99.90
3756;DHT22;1893;52.526;13.360;2023-07-08T04:50:42;18.70;99.90
3756;DHT22;1893;52.526;13.360;2023-07-08T04:53:08;18.70;99.90
3756;DHT22;1893;52.526;13.360;2023-07-08T04:55:36;18.90;99.90
3756;DHT22;1893;52.526;13.360;2023-07-08T04:58:03;19.00;99.90
3756;DHT22;1893;52.526;13.360;2023-07-08T05:00:29;19.00;99.90
3756;DHT22;1893;52.526;13.360;2023-07-08T05:02:54;19.10;99.90
3756;DHT22;1893;52.526;13.360;2023-07-08T05:05:20;19.20;99.90
3756;DHT22;1893;52.526;13.360;2023-07-08T05:07:46;19.30;99.90
3756;DHT22;1893;52.526;13.360;2023-07-08T05:10:12;19.40;99.90
3756;DHT22;1893;52.526;13.360;2023-07-08T05:12:37;19.50;99.90
3756;DHT22;1893;52.526;13.360;2023-07-08T05:15:04;19.50;99.90
3756;DHT22;1893;52.526;13.360;2023-07-08T05:17:30;19.70;99.90
3756;DHT22;1893;52.526;13.360;2023-07-08T05:19:55;19.80;99.90
3756;DHT22;1893;52.526;13.360;2023-07-08T05:22:24;19.90;99.90
3756;DHT22;1893;52.526;13.360;2023-07-08T05:24:51;20.00;99.90
3756;DHT22;1893;52.526;13.360;2023-07-08T05:27:18;20.10;99.90
3756;DHT22;1893;52.526;13.360;2023-07-08T05:29:46;20.20;99.90
3756;DHT22;1893;52.526;13.360;2023-07-08T05:32:12;20.40;99.90
3756;DHT22;1893;52.526;13.360;2023-07-08T05:34:37;20.60;99.90
3756;DHT22;1893;52.526;13.360;2023-07-08T05:37:03;20.70;99.90
3756;DHT22;1893;52.526;13.360;2023-07-08T05:39:30;20.70;99.90
3756;DHT22;1893;52.526;13.360;2023-07-08T05:41:56;20.80;99.90
3756;DHT22;1893;52.526;13.360;2023-07-08T05:44:22;20.90;99.90
3756;DHT22;1893;52.526;13.360;2023-07-08T05:46:48;21.00;99.90
3756;DHT22;1893;52.526;13.360;2023-07-08T05:49:14;21.00;99.90
3756;DHT22;1893;52.526;13.360;2023-07-08T05:51:40;21.10;99.90
3756;DHT22;1893;52.526;13.360;2023-07-08T05:54:05;21.20;99.90
3756;DHT22;1893;52.526;13.360;2023-07-08T05:56:31;21.40;99.90
3756;DHT22;1893;52.526;13.360;2023-07-08T05:58:57;21.50;99.90
3756;DHT22;1893;52.526;13.360;2023-07-08T06:01:22;21.60;99.90
3756;DHT22;1893;52.526;13.360;2023-07-08T06:03:48;21.70;99.90
3756;DHT22;1893;52.526;13.360;2023-07-08T06:06:15;21.90;99.90
3756;DHT22;1893;52.526;13.360;2023-07-08T06:08:41;21.90;99.90
3756;DHT22;1893;52.526;13.360;2023-07-08T06:11:06;22.00;99.90
3756;DHT22;1893;52.526;13.360;2023-07-08T06:13:32;22.10;99.90
3756;DHT22;1893;52.526;13.360;2023-07-08T06:15:58;22.20;99.90
3756;DHT22;1893;52.526;13.360;2023-07-08T06:18:23;22.30;99.90
3756;DHT22;1893;52.526;13.360;2023-07-08T06:20:54;22.40;99.90
3756;DHT22;1893;52.526;13.360;2023-07-08T06:23:20;22.50;99.90
3756;DHT22;1893;52.526;13.360;2023-07-08T06:25:46;22.60;99.90
3756;DHT22;1893;52.526;13.360;2023-07-08T06:28:11;22.70;99.90
3756;DHT22;1893;52.526;13.360;2023-07-08T06:30:37;22.90;99.90
3756;DHT22;1893;52.526;13.360;2023-07-08T06:33:03;23.00;99.90
3756;DHT22;1893;52.526;13.360;2023-07-08T06:35:29;23.10;99.90
3756;DHT22;1893;52.526;13.360;2023-07-08T06:37:54;23.30;99.90
3756;DHT22;1893;52.526;13.360;2023-07-08T06:40:20;23.40;99.90
3756;DHT22;1893;52.526;13.360;2023-07-08T06:42:46;23.50;99.90
3756;DHT22;1893;52.526;13.360;2023-07-08T06:45:11;23.70;99.90
3756;DHT22;1893;52.526;13.360;2023-07-08T06:47:37;23.80;99.90
3756;DHT22;1893;52.526;13.360;2023-07-08T06:50:03;23.80;99.90
3756;DHT22;1893;52.526;13.360;2023-07-08T06:52:28;23.90;99.90
3756;DHT22;1893;52.526;13.360;2023-07-08T06:55:00;24.00;99.90
3756;DHT22;1893;52.526;13.360;2023-07-08T06:57:26;24.10;99.90
3756;DHT22;1893;52.526;13.360;2023-07-08T06:59:52;24.10;99.90
3756;DHT22;1893;52.526;13.360;2023-07-08T07:02:17;24.30;99.90
3756;DHT22;1893;52.526;13.360;2023-07-08T07:04:43;24.40;99.90
3756;DHT22;1893;52.526;13.360;2023-07-08T07:07:09;24.50;99.90
3756;DHT22;1893;52.526;13.360;2023-07-08T07:09:35;24.50;99.90
3756;DHT22;1893;52.526;13.360;2023-07-08T07:12:01;24.60;99.90
3756;DHT22;1893;52.526;13.360;2023-07-08T07:14:27;24.60;99.90
3756;DHT22;1893;52.526;13.360;2023-07-08T07:16:52;24.60;99.90
3756;DHT22;1893;52.526;13.360;2023-07-08T07:19:18;24.70;99.90
3756;DHT22;1893;52.526;13.360;2023-07-08T07:21:44;24.80;99.90
3756;DHT22;1893;52.526;13.360;2023-07-08T07:24:09;24.90;99.90
3756;DHT22;1893;52.526;13.360;2023-07-08T07:26:37;25.00;99.90
3756;DHT22;1893;52.526;13.360;2023-07-08T07:29:02;25.10;99.90
3756;DHT22;1893;52.526;13.360;2023-07-08T07:31:28;25.10;99.90
3756;DHT22;1893;52.526;13.360;2023-07-08T07:33:56;25.40;99.90
3756;DHT22;1893;52.526;13.360;2023-07-08T07:36:21;25.60;99.90
3756;DHT22;1893;52.526;13.360;2023-07-08T07:38:47;25.70;99.90
3756;DHT22;1893;52.526;13.360;2023-07-08T07:41:12;25.90;99.90
3756;DHT22;1893;52.526;13.360;2023-07-08T07:43:38;26.10;99.90
3756;DHT22;1893;52.526;13.360;2023-07-08T07:46:04;26.10;99.90
3756;DHT22;1893;52.526;13.360;2023-07-08T07:48:31;26.20;99.90
3756;DHT22;1893;52.526;13.360;2023-07-08T07:50:57;26.40;99.90
3756;DHT22;1893;52.526;13.360;2023-07-08T07:53:23;26.60;99.90
3756;DHT22;1893;52.526;13.360;2023-07-08T07:55:56;26.70;99.90
3756;DHT22;1893;52.526;13.360;2023-07-08T07:58:22;26.90;99.90
3756;DHT22;1893;52.526;13.360;2023-07-08T08:00:47;27.00;99.90
3756;DHT22;1893;52.526;13.360;2023-07-08T08:03:13;27.10;99.90
3756;DHT22;1893;52.526;13.360;2023-07-08T08:05:38;27.00;99.90
3756;DHT22;1893;52.526;13.360;2023-07-08T08:08:04;26.80;99.90
3756;DHT22;1893;52.526;13.360;2023-07-08T08:10:30;26.90;99.90
3756;DHT22;1893;52.526;13.360;2023-07-08T08:12:58;26.90;99.90
3756;DHT22;1893;52.526;13.360;2023-07-08T08:15:23;26.80;99.90
3756;DHT22;1893;52.526;13.360;2023-07-08T08:17:49;27.10;99.90
3756;DHT22;1893;52.526;13.360;2023-07-08T08:20:18;27.30;99.90
3756;DHT22;1893;52.526;13.360;2023-07-08T08:22:44;27.40;99.90
3756;DHT22;1893;52.526;13.360;2023-07-08T08:25:09;27.40;99.90
3756;DHT22;1893;52.526;13.360;2023-07-08T08:27:35;27.50;99.90
3756;DHT22;1893;52.526;13.360;2023-07-08T08:30:01;27.50;99.90
3756;DHT22;1893;52.526;13.360;2023-07-08T08:32:27;27.50;99.90
3756;DHT22;1893;52.526;13.360;2023-07-08T08:34:53;27.60;99.90
3756;DHT22;1893;52.526;13.360;2023-07-08T08:37:18;27.70;99.90
3756;DHT22;1893;52.526;13.360;2023-07-08T08:39:44;27.60;99.90
3756;DHT22;1893;52.526;13.360;2023-07-08T08:42:20;27.80;99.90
3756;DHT22;1893;52.526;13.360;2023-07-08T08:44:47;27.70;99.70
3756;DHT22;1893;52.526;13.360;2023-07-08T08:47:37;27.90;99.90
3756;DHT22;1893;52.526;13.360;2023-07-08T08:52:34;28.10;98.40
3756;DHT22;1893;52.526;13.360;2023-07-08T08:55:00;28.30;97.20
3756;DHT22;1893;52.526;13.360;2023-07-08T08:57:32;28.30;96.40
3756;DHT22;1893;52.526;13.360;2023-07-08T09:00:00;28.20;95.50
3756;DHT22;1893;52.526;13.360;2023-07-08T09:02:33;28.30;92.60
3756;DHT22;1893;52.526;13.360;2023-07-08T09:05:08;28.50;93.10
3756;DHT22;1893;52.526;13.360;2023-07-08T09:13:16;28.30;88.30
3756;DHT22;1893;52.526;13.360;2023-07-08T09:15:44;28.40;82.70
3756;DHT22;1893;52.526;13.360;2023-07-08T09:18:39;28.60;86.10
3756;DHT22;1893;52.526;13.360;2023-07-08T09:21:15;28.80;85.00
3756;DHT22;1893;52.526;13.360;2023-07-08T09:23:46;28.90;80.40
3756;DHT22;1893;52.526;13.360;2023-07-08T09:26:22;29.20;77.80
3756;DHT22;1893;52.526;13.360;2023-07-08T09:28:49;29.30;74.80
3756;DHT22;1893;52.526;13.360;2023-07-08T09:31:27;29.20;74.90
3756;DHT22;1893;52.526;13.360;2023-07-08T09:34:04;28.60;60.60
3756;DHT22;1893;52.526;13.360;2023-07-08T09:36:30;28.80;64.00
3756;DHT22;1893;52.526;13.360;2023-07-08T09:38:56;29.30;64.10
3756;DHT22;1893;52.526;13.360;2023-07-08T09:41:33;29.40;59.50
3756;DHT22;1893;52.526;13.360;2023-07-08T09:44:13;29.60;62.20
3756;DHT22;1893;52.526;13.360;2023-07-08T09:46:39;29.70;62.90
3756;DHT22;1893;52.526;13.360;2023-07-08T09:49:21;29.70;62.80
3756;DHT22;1893;52.526;13.360;2023-07-08T09:51:48;30.30;60.00
3756;DHT22;1893;52.526;13.360;2023-07-08T09:54:20;30.50;59.60
3756;DHT22;1893;52.526;13.360;2023-07-08T09:57:05;30.80;57.60
3756;DHT22;1893;52.526;13.360;2023-07-08T09:59:47;31.10;56.10
3756;DHT22;1893;52.526;13.360;2023-07-08T10:04:57;31.80;54.10
3756;DHT22;1893;52.526;13.360;2023-07-08T10:07:23;32.80;52.80
3756;DHT22;1893;52.526;13.360;2023-07-08T10:09:52;33.10;51.60
3756;DHT22;1893;52.526;13.360;2023-07-08T10:12:20;33.70;46.40
3756;DHT22;1893;52.526;13.360;2023-07-08T10:15:16;33.90;44.40
3756;DHT22;1893;52.526;13.360;2023-07-08T10:17:43;33.30;43.50
3756;DHT22;1893;52.526;13.360;2023-07-08T10:20:13;34.40;41.70
3756;DHT22;1893;52.526;13.360;2023-07-08T10:25:51;34.40;40.10
3756;DHT22;1893;52.526;13.360;2023-07-08T10:36:37;35.70;35.00
3756;DHT22;1893;52.526;13.360;2023-07-08T10:39:25;35.90;34.00
3756;DHT22;1893;52.526;13.360;2023-07-08T10:44:43;36.60;32.60
3756;DHT22;1893;52.526;13.360;2023-07-08T10:47:42;36.20;32.20
3756;DHT22;1893;52.526;13.360;2023-07-08T10:53:04;36.90;29.40
3756;DHT22;1893;52.526;13.360;2023-07-08T10:56:01;36.60;29.20
3756;DHT22;1893;52.526;13.360;2023-07-08T11:01:21;37.70;28.30
3756;DHT22;1893;52.526;13.360;2023-07-08T11:09:07;36.40;28.70
3756;DHT22;1893;52.526;13.360;2023-07-08T11:14:25;37.10;27.00
3756;DHT22;1893;52.526;13.360;2023-07-08T11:17:10;37.20;25.00
3756;DHT22;1893;52.526;13.360;2023-07-08T11:19:58;35.80;26.60
3756;DHT22;1893;52.526;13.360;2023-07-08T11:22:24;35.60;27.80
3756;DHT22;1893;52.526;13.360;2023-07-08T11:24:54;36.40;27.10
3756;DHT22;1893;52.526;13.360;2023-07-08T11:27:28;37.00;26.00
3756;DHT22;1893;52.526;13.360;2023-07-08T11:32:37;36.30;26.10
3756;DHT22;1893;52.526;13.360;2023-07-08T11:35:06;35.60;25.80
3756;DHT22;1893;52.526;13.360;2023-07-08T11:37:33;34.20;24.70
3756;DHT22;1893;52.526;13.360;2023-07-08T11:42:44;34.40;27.50
3756;DHT22;1893;52.526;13.360;2023-07-08T11:47:52;34.10;26.50
3756;DHT22;1893;52.526;13.360;2023-07-08T11:50:24;33.60;27.00
3756;DHT22;1893;52.526;13.360;2023-07-08T11:53:11;33.40;28.10
3756;DHT22;1893;52.526;13.360;2023-07-08T11:55:44;32.90;28.00
3756;DHT22;1893;52.526;13.360;2023-07-08T11:58:23;33.00;28.70
3756;DHT22;1893;52.526;13.360;2023-07-08T12:01:04;32.40;28.80
3756;DHT22;1893;52.526;13.360;2023-07-08T12:03:39;32.30;28.70
3756;DHT22;1893;52.526;13.360;2023-07-08T12:08:58;32.20;28.90
3756;DHT22;1893;52.526;13.360;2023-07-08T12:11:34;32.00;28.70
3756;DHT22;1893;52.526;13.360;2023-07-08T12:14:01;32.10;29.00
3756;DHT22;1893;52.526;13.360;2023-07-08T12:16:29;32.20;29.70
3756;DHT22;1893;52.526;13.360;2023-07-08T12:18:57;32.10;28.90
3756;DHT22;1893;52.526;13.360;2023-07-08T12:21:24;32.10;28.90
3756;DHT22;1893;52.526;13.360;2023-07-08T12:23:52;32.10;29.50
3756;DHT22;1893;52.526;13.360;2023-07-08T12:26:17;32.10;29.80
3756;DHT22;1893;52.526;13.360;2023-07-08T12:28:43;31.90;29.20
3756;DHT22;1893;52.526;13.360;2023-07-08T12:31:21;31.90;29.20
3756;DHT22;1893;52.526;13.360;2023-07-08T12:33:47;31.90;29.90
3756;DHT22;1893;52.526;13.360;2023-07-08T12:38:44;31.80;30.10
3756;DHT22;1893;52.526;13.360;2023-07-08T12:41:34;31.80;30.00
3756;DHT22;1893;52.526;13.360;2023-07-08T12:44:01;31.80;29.40
3756;DHT22;1893;52.526;13.360;2023-07-08T12:46:28;31.70;30.60
3756;DHT22;1893;52.526;13.360;2023-07-08T12:48:54;31.80;29.90
3756;DHT22;1893;52.526;13.360;2023-07-08T12:51:25;31.90;30.10
3756;DHT22;1893;52.526;13.360;2023-07-08T12:53:52;31.90;29.40
3756;DHT22;1893;52.526;13.360;2023-07-08T12:56:23;31.90;30.00
3756;DHT22;1893;52.526;13.360;2023-07-08T12:58:54;32.10;29.60
3756;DHT22;1893;52.526;13.360;2023-07-08T13:01:30;32.20;29.50
3756;DHT22;1893;52.526;13.360;2023-07-08T13:04:01;32.20;27.50
3756;DHT22;1893;52.526;13.360;2023-07-08T13:06:29;31.90;28.00
3756;DHT22;1893;52.526;13.360;2023-07-08T13:09:23;31.80;28.40
3756;DHT22;1893;52.526;13.360;2023-07-08T13:11:46;31.70;28.20
3756;DHT22;1893;52.526;13.360;2023-07-08T13:14:14;31.40;29.60
3756;DHT22;1893;52.526;13.360;2023-07-08T13:16:40;31.40;29.80
3756;DHT22;1893;52.526;13.360;2023-07-08T13:19:06;31.40;29.50
3756;DHT22;1893;52.526;13.360;2023-07-08T13:21:34;31.40;28.90
3756;DHT22;1893;52.526;13.360;2023-07-08T13:24:00;31.30;29.00
3756;DHT22;1893;52.526;13.360;2023-07-08T13:26:29;31.60;29.30
3756;DHT22;1893;52.526;13.360;2023-07-08T13:29:09;31.70;29.30
3756;DHT22;1893;52.526;13.360;2023-07-08T13:31:38;31.40;29.90
3756;DHT22;1893;52.526;13.360;2023-07-08T13:34:10;31.40;29.60
3756;DHT22;1893;52.526;13.360;2023-07-08T13:36:42;31.40;28.70
3756;DHT22;1893;52.526;13.360;2023-07-08T13:39:15;31.60;30.30
3756;DHT22;1893;52.526;13.360;2023-07-08T13:41:43;31.70;30.00
3756;DHT22;1893;52.526;13.360;2023-07-08T13:44:10;31.60;27.60
3756;DHT22;1893;52.526;13.360;2023-07-08T13:49:30;31.40;29.00
3756;DHT22;1893;52.526;13.360;2023-07-08T13:52:15;31.40;28.70
3756;DHT22;1893;52.526;13.360;2023-07-08T13:54:54;31.40;29.00
3756;DHT22;1893;52.526;13.360;2023-07-08T13:57:30;31.40;29.00
3756;DHT22;1893;52.526;13.360;2023-07-08T13:59:56;31.60;28.40
3756;DHT22;1893;52.526;13.360;2023-07-08T14:02:25;31.50;28.30
3756;DHT22;1893;52.526;13.360;2023-07-08T14:04:51;31.40;28.80
3756;DHT22;1893;52.526;13.360;2023-07-08T14:07:24;31.40;28.90
3756;DHT22;1893;52.526;13.360;2023-07-08T14:09:50;31.60;28.30
3756;DHT22;1893;52.526;13.360;2023-07-08T14:12:16;31.50;27.80
3756;DHT22;1893;52.526;13.360;2023-07-08T14:14:41;31.20;27.70
3756;DHT22;1893;52.526;13.360;2023-07-08T14:17:12;31.30;29.00
3756;DHT22;1893;52.526;13.360;2023-07-08T14:19:39;31.40;29.00
3756;DHT22;1893;52.526;13.360;2023-07-08T14:24:40;31.40;29.10
3756;DHT22;1893;52.526;13.360;2023-07-08T14:27:10;31.40;29.80
3756;DHT22;1893;52.526;13.360;2023-07-08T14:29:38;31.50;29.80
3756;DHT22;1893;52.526;13.360;2023-07-08T14:32:04;31.70;28.90
3756;DHT22;1893;52.526;13.360;2023-07-08T14:34:30;31.40;28.70
3756;DHT22;1893;52.526;13.360;2023-07-08T14:36:57;31.40;29.00
3756;DHT22;1893;52.526;13.360;2023-07-08T14:39:23;31.50;28.70
3756;DHT22;1893;52.526;13.360;2023-07-08T14:41:50;31.50;28.80
3756;DHT22;1893;52.526;13.360;2023-07-08T14:46:48;31.40;28.70
3756;DHT22;1893;52.526;13.360;2023-07-08T14:49:17;31.30;28.90
3756;DHT22;1893;52.526;13.360;2023-07-08T14:51:43;31.20;29.00
3756;DHT22;1893;52.526;13.360;2023-07-08T14:54:08;31.20;28.10
3756;DHT22;1893;52.526;13.360;2023-07-08T14:56:34;31.10;29.00
3756;DHT22;1893;52.526;13.360;2023-07-08T14:58:59;31.10;28.40
3756;DHT22;1893;52.526;13.360;2023-07-08T15:01:25;31.00;28.20
3756;DHT22;1893;52.526;13.360;2023-07-08T15:03:56;31.00;28.40
3756;DHT22;1893;52.526;13.360;2023-07-08T15:06:22;31.00;28.50
3756;DHT22;1893;52.526;13.360;2023-07-08T15:08:47;31.00;28.50
3756;DHT22;1893;52.526;13.360;2023-07-08T15:11:14;31.00;27.70
3756;DHT22;1893;52.526;13.360;2023-07-08T15:13:41;31.10;28.80
3756;DHT22;1893;52.526;13.360;2023-07-08T15:16:13;31.00;28.40
3756;DHT22;1893;52.526;13.360;2023-07-08T15:18:39;31.10;28.40
3756;DHT22;1893;52.526;13.360;2023-07-08T15:21:11;31.00;27.70
3756;DHT22;1893;52.526;13.360;2023-07-08T15:23:36;30.80;28.90
3756;DHT22;1893;52.526;13.360;2023-07-08T15:26:02;30.80;29.20
3756;DHT22;1893;52.526;13.360;2023-07-08T15:28:40;30.90;29.30
3756;DHT22;1893;52.526;13.360;2023-07-08T15:31:09;30.90;28.30
3756;DHT22;1893;52.526;13.360;2023-07-08T15:33:36;30.80;28.30
3756;DHT22;1893;52.526;13.360;2023-07-08T15:36:02;30.60;28.20
3756;DHT22;1893;52.526;13.360;2023-07-08T15:38:27;30.50;29.20
3756;DHT22;1893;52.526;13.360;2023-07-08T15:40:53;30.70;29.60
3756;DHT22;1893;52.526;13.360;2023-07-08T15:43:19;30.80;29.60
3756;DHT22;1893;52.526;13.360;2023-07-08T15:45:45;30.70;29.50
3756;DHT22;1893;52.526;13.360;2023-07-08T15:48:15;30.60;29.90
3756;DHT22;1893;52.526;13.360;2023-07-08T15:50:41;30.60;28.00
3756;DHT22;1893;52.526;13.360;2023-07-08T15:53:07;30.50;28.60
3756;DHT22;1893;52.526;13.360;2023-07-08T15:55:36;30.40;27.70
3756;DHT22;1893;52.526;13.360;2023-07-08T15:58:08;30.40;27.70
3756;DHT22;1893;52.526;13.360;2023-07-08T16:00:38;30.30;28.10
3756;DHT22;1893;52.526;13.360;2023-07-08T16:03:12;30.30;28.60
3756;DHT22;1893;52.526;13.360;2023-07-08T16:05:38;30.40;29.10
3756;DHT22;1893;52.526;13.360;2023-07-08T16:08:04;30.30;28.90
3756;DHT22;1893;52.526;13.360;2023-07-08T16:10:30;30.20;29.10
3756;DHT22;1893;52.526;13.360;2023-07-08T16:12:56;30.20;29.70
3756;DHT22;1893;52.526;13.360;2023-07-08T16:15:31;30.30;29.70
3756;DHT22;1893;52.526;13.360;2023-07-08T16:17:58;30.30;29.40
3756;DHT22;1893;52.526;13.360;2023-07-08T16:20:27;30.20;29.80
3756;DHT22;1893;52.526;13.360;2023-07-08T16:22:52;30.10;29.40
3756;DHT22;1893;52.526;13.360;2023-07-08T16:25:23;30.10;29.40
3756;DHT22;1893;52.526;13.360;2023-07-08T16:27:50;30.10;29.20
3756;DHT22;1893;52.526;13.360;2023-07-08T16:30:20;30.10;29.90
3756;DHT22;1893;52.526;13.360;2023-07-08T16:32:47;29.90;28.70
3756;DHT22;1893;52.526;13.360;2023-07-08T16:35:18;30.00;29.30
3756;DHT22;1893;52.526;13.360;2023-07-08T16:37:46;30.00;29.30
3756;DHT22;1893;52.526;13.360;2023-07-08T16:40:18;29.90;29.00
3756;DHT22;1893;52.526;13.360;2023-07-08T16:42:45;29.90;29.70
3756;DHT22;1893;52.526;13.360;2023-07-08T16:45:13;29.80;28.30
3756;DHT22;1893;52.526;13.360;2023-07-08T16:47:39;29.80;29.50
3756;DHT22;1893;52.526;13.360;2023-07-08T16:50:05;29.70;30.10
3756;DHT22;1893;52.526;13.360;2023-07-08T16:52:32;29.60;30.10
3756;DHT22;1893;52.526;13.360;2023-07-08T16:54:58;29.50;30.00
3756;DHT22;1893;52.526;13.360;2023-07-08T16:57:24;29.60;29.80
3756;DHT22;1893;52.526;13.360;2023-07-08T16:59:52;29.50;29.80
3756;DHT22;1893;52.526;13.360;2023-07-08T17:02:18;29.50;29.80